sensor_id;sensor_type;location;lat;lon;timestamp;P1;durP1;ratioP1;P2;durP2;ratioP2
4821;SDS011;2425;47.794;13.068;2022-10-03T00:00:08;5.30;;;4.90;;
4821;SDS011;2425;47.794;13.068;2022-10-03T00:02:45;4.83;;;4.53;;
4821;SDS011;2425;47.794;13.068;2022-10-03T00:05:33;4.97;;;4.57;;
4821;SDS011;2425;47.794;13.068;2022-10-03T00:08:08;4.00;;;3.80;;
4821;SDS011;2425;47.794;13.068;2022-10-03T00:10:46;5.40;;;5.00;;
4821;SDS011;2425;47.794;13.068;2022-10-03T00:13:19;5.00;;;4.63;;
4821;SDS011;2425;47.794;13.068;2022-10-03T00:15:52;4.70;;;4.40;;
4821;SDS011;2425;47.794;13.068;2022-10-03T00:18:29;4.70;;;4.40;;
4821;SDS011;2425;47.794;13.068;2022-10-03T00:23:55;3.80;;;3.60;;
4821;SDS011;2425;47.794;13.068;2022-10-03T00:26:28;4.50;;;4.20;;
4821;SDS011;2425;47.794;13.068;2022-10-03T00:31:54;3.83;;;3.63;;
4821;SDS011;2425;47.794;13.068;2022-10-03T00:34:26;3.97;;;3.77;;
4821;SDS011;2425;47.794;13.068;2022-10-03T00:37:09;4.33;;;4.07;;
4821;SDS011;2425;47.794;13.068;2022-10-03T00:39:48;3.80;;;3.60;;
4821;SDS011;2425;47.794;13.068;2022-10-03T00:42:53;3.73;;;3.53;;
4821;SDS011;2425;47.794;13.068;2022-10-03T00:46:02;4.27;;;4.03;;
4821;SDS011;2425;47.794;13.068;2022-10-03T00:49:13;4.13;;;3.83;;
4821;SDS011;2425;47.794;13.068;2022-10-03T00:54:56;4.17;;;3.90;;
4821;SDS011;2425;47.794;13.068;2022-10-03T00:57:36;4.50;;;4.20;;
4821;SDS011;2425;47.794;13.068;2022-10-03T01:00:16;4.70;;;4.40;;
4821;SDS011;2425;47.794;13.068;2022-10-03T01:02:48;5.10;;;4.70;;
4821;SDS011;2425;47.794;13.068;2022-10-03T01:05:30;4.70;;;4.33;;
4821;SDS011;2425;47.794;13.068;2022-10-03T01:08:34;4.77;;;4.47;;
4821;SDS011;2425;47.794;13.068;2022-10-03T01:11:23;4.90;;;4.57;;
4821;SDS011;2425;47.794;13.068;2022-10-03T01:14:22;4.17;;;3.90;;
4821;SDS011;2425;47.794;13.068;2022-10-03T01:17:09;3.90;;;3.70;;
4821;SDS011;2425;47.794;13.068;2022-10-03T01:22:38;4.57;;;4.27;;
4821;SDS011;2425;47.794;13.068;2022-10-03T01:25:31;3.77;;;3.57;;
4821;SDS011;2425;47.794;13.068;2022-10-03T01:30:58;4.27;;;3.97;;
4821;SDS011;2425;47.794;13.068;2022-10-03T01:33:29;3.60;;;3.40;;
4821;SDS011;2425;47.794;13.068;2022-10-03T01:36:00;3.47;;;3.27;;
4821;SDS011;2425;47.794;13.068;2022-10-03T01:38:32;3.70;;;3.50;;
4821;SDS011;2425;47.794;13.068;2022-10-03T01:41:03;3.70;;;3.50;;
4821;SDS011;2425;47.794;13.068;2022-10-03T01:43:40;3.47;;;3.27;;
4821;SDS011;2425;47.794;13.068;2022-10-03T01:46:10;4.10;;;3.80;;
4821;SDS011;2425;47.794;13.068;2022-10-03T01:48:42;3.70;;;3.50;;
4821;SDS011;2425;47.794;13.068;2022-10-03T01:51:13;3.60;;;3.40;;
4821;SDS011;2425;47.794;13.068;2022-10-03T01:53:55;3.40;;;3.20;;
4821;SDS011;2425;47.794;13.068;2022-10-03T01:56:27;4.27;;;3.97;;
4821;SDS011;2425;47.794;13.068;2022-10-03T01:59:01;3.60;;;3.40;;
4821;SDS011;2425;47.794;13.068;2022-10-03T02:01:33;3.77;;;3.57;;
4821;SDS011;2425;47.794;13.068;2022-10-03T02:04:05;3.97;;;3.77;;
4821;SDS011;2425;47.794;13.068;2022-10-03T02:06:41;4.00;;;3.80;;
4821;SDS011;2425;47.794;13.068;2022-10-03T02:09:16;4.03;;;3.80;;
4821;SDS011;2425;47.794;13.068;2022-10-03T02:11:54;3.57;;;3.37;;
4821;SDS011;2425;47.794;13.068;2022-10-03T02:14:29;4.10;;;3.90;;
4821;SDS011;2425;47.794;13.068;2022-10-03T02:17:00;4.30;;;4.10;;
4821;SDS011;2425;47.794;13.068;2022-10-03T02:19:33;4.10;;;3.83;;
4821;SDS011;2425;47.794;13.068;2022-10-03T02:22:12;3.87;;;3.67;;
4821;SDS011;2425;47.794;13.068;2022-10-03T02:24:41;4.20;;;4.00;;
4821;SDS011;2425;47.794;13.068;2022-10-03T02:27:17;3.53;;;3.33;;
4821;SDS011;2425;47.794;13.068;2022-10-03T02:41:59;3.60;;;3.40;;
4821;SDS011;2425;47.794;13.068;2022-10-03T02:44:57;4.00;;;3.80;;
4821;SDS011;2425;47.794;13.068;2022-10-03T02:50:53;3.70;;;3.50;;
4821;SDS011;2425;47.794;13.068;2022-10-03T02:53:40;4.03;;;3.83;;
4821;SDS011;2425;47.794;13.068;2022-10-03T02:56:32;3.47;;;3.27;;
4821;SDS011;2425;47.794;13.068;2022-10-03T03:08:50;3.17;;;3.07;;
4821;SDS011;2425;47.794;13.068;2022-10-03T03:11:26;3.57;;;3.37;;
4821;SDS011;2425;47.794;13.068;2022-10-03T03:16:59;2.93;;;2.83;;
4821;SDS011;2425;47.794;13.068;2022-10-03T03:22:32;3.73;;;3.53;;
4821;SDS011;2425;47.794;13.068;2022-10-03T03:25:12;4.10;;;3.80;;
4821;SDS011;2425;47.794;13.068;2022-10-03T03:27:50;3.10;;;3.00;;
4821;SDS011;2425;47.794;13.068;2022-10-03T03:30:27;3.60;;;3.40;;
4821;SDS011;2425;47.794;13.068;2022-10-03T03:33:01;3.73;;;3.53;;
4821;SDS011;2425;47.794;13.068;2022-10-03T03:35:35;3.47;;;3.27;;
4821;SDS011;2425;47.794;13.068;2022-10-03T03:38:13;3.60;;;3.40;;
4821;SDS011;2425;47.794;13.068;2022-10-03T03:40:55;3.60;;;3.40;;
4821;SDS011;2425;47.794;13.068;2022-10-03T03:43:33;2.93;;;2.83;;
4821;SDS011;2425;47.794;13.068;2022-10-03T03:46:12;3.07;;;2.97;;
4821;SDS011;2425;47.794;13.068;2022-10-03T03:48:49;2.90;;;2.80;;
4821;SDS011;2425;47.794;13.068;2022-10-03T03:51:28;3.40;;;3.20;;
4821;SDS011;2425;47.794;13.068;2022-10-03T03:54:15;3.73;;;3.53;;
4821;SDS011;2425;47.794;13.068;2022-10-03T03:56:58;3.80;;;3.60;;
4821;SDS011;2425;47.794;13.068;2022-10-03T03:59:44;3.43;;;3.27;;
4821;SDS011;2425;47.794;13.068;2022-10-03T04:02:25;2.73;;;2.63;;
4821;SDS011;2425;47.794;13.068;2022-10-03T04:05:06;3.10;;;3.00;;
4821;SDS011;2425;47.794;13.068;2022-10-03T04:07:44;3.13;;;3.03;;
4821;SDS011;2425;47.794;13.068;2022-10-03T04:10:26;3.50;;;3.30;;
4821;SDS011;2425;47.794;13.068;2022-10-03T04:13:07;2.90;;;2.80;;
4821;SDS011;2425;47.794;13.068;2022-10-03T04:15:47;2.90;;;2.80;;
4821;SDS011;2425;47.794;13.068;2022-10-03T04:18:44;3.10;;;3.00;;
4821;SDS011;2425;47.794;13.068;2022-10-03T04:21:35;2.93;;;2.83;;
4821;SDS011;2425;47.794;13.068;2022-10-03T04:24:12;2.50;;;2.40;;
4821;SDS011;2425;47.794;13.068;2022-10-03T04:26:49;2.70;;;2.60;;
4821;SDS011;2425;47.794;13.068;2022-10-03T04:29:32;2.70;;;2.60;;
4821;SDS011;2425;47.794;13.068;2022-10-03T04:32:12;3.00;;;2.90;;
4821;SDS011;2425;47.794;13.068;2022-10-03T04:35:23;3.00;;;2.90;;
4821;SDS011;2425;47.794;13.068;2022-10-03T04:38:02;3.13;;;3.03;;
4821;SDS011;2425;47.794;13.068;2022-10-03T04:40:38;3.47;;;3.27;;
4821;SDS011;2425;47.794;13.068;2022-10-03T04:43:10;3.20;;;3.00;;
4821;SDS011;2425;47.794;13.068;2022-10-03T04:48:27;3.33;;;3.13;;
4821;SDS011;2425;47.794;13.068;2022-10-03T04:51:02;3.20;;;3.10;;
4821;SDS011;2425;47.794;13.068;2022-10-03T04:53:36;3.00;;;2.87;;
4821;SDS011;2425;47.794;13.068;2022-10-03T04:56:15;3.43;;;3.23;;
4821;SDS011;2425;47.794;13.068;2022-10-03T04:58:49;3.00;;;2.90;;
4821;SDS011;2425;47.794;13.068;2022-10-03T05:01:23;3.27;;;3.13;;
4821;SDS011;2425;47.794;13.068;2022-10-03T05:03:59;3.30;;;3.10;;
4821;SDS011;2425;47.794;13.068;2022-10-03T05:06:34;2.90;;;2.80;;
4821;SDS011;2425;47.794;13.068;2022-10-03T05:09:12;3.23;;;3.13;;
4821;SDS011;2425;47.794;13.068;2022-10-03T05:11:47;2.80;;;2.70;;
4821;SDS011;2425;47.794;13.068;2022-10-03T05:14:23;3.30;;;3.10;;
4821;SDS011;2425;47.794;13.068;2022-10-03T05:16:59;3.30;;;3.10;;
4821;SDS011;2425;47.794;13.068;2022-10-03T05:19:36;3.50;;;3.30;;
4821;SDS011;2425;47.794;13.068;2022-10-03T05:22:07;2.60;;;2.50;;
4821;SDS011;2425;47.794;13.068;2022-10-03T05:24:42;3.27;;;3.07;;
4821;SDS011;2425;47.794;13.068;2022-10-03T05:27:14;2.73;;;2.63;;
4821;SDS011;2425;47.794;13.068;2022-10-03T05:29:50;2.70;;;2.60;;
4821;SDS011;2425;47.794;13.068;2022-10-03T05:32:26;2.70;;;2.60;;
4821;SDS011;2425;47.794;13.068;2022-10-03T05:38:10;2.43;;;2.33;;
4821;SDS011;2425;47.794;13.068;2022-10-03T05:40:50;3.00;;;2.90;;
4821;SDS011;2425;47.794;13.068;2022-10-03T05:43:27;2.13;;;2.03;;
4821;SDS011;2425;47.794;13.068;2022-10-03T05:46:02;2.50;;;2.40;;
4821;SDS011;2425;47.794;13.068;2022-10-03T05:48:40;2.63;;;2.53;;
4821;SDS011;2425;47.794;13.068;2022-10-03T05:51:27;2.63;;;2.53;;
4821;SDS011;2425;47.794;13.068;2022-10-03T05:54:28;3.10;;;3.00;;
4821;SDS011;2425;47.794;13.068;2022-10-03T06:00:05;2.70;;;2.60;;
4821;SDS011;2425;47.794;13.068;2022-10-03T06:02:44;3.00;;;2.90;;
4821;SDS011;2425;47.794;13.068;2022-10-03T06:05:28;3.23;;;3.13;;
4821;SDS011;2425;47.794;13.068;2022-10-03T06:08:02;3.00;;;2.80;;
4821;SDS011;2425;47.794;13.068;2022-10-03T06:10:41;3.00;;;2.90;;
4821;SDS011;2425;47.794;13.068;2022-10-03T06:13:11;2.87;;;2.77;;
4821;SDS011;2425;47.794;13.068;2022-10-03T06:15:56;3.00;;;2.90;;
4821;SDS011;2425;47.794;13.068;2022-10-03T06:24:47;3.00;;;2.90;;
4821;SDS011;2425;47.794;13.068;2022-10-03T06:36:53;2.50;;;2.40;;
4821;SDS011;2425;47.794;13.068;2022-10-03T06:42:49;2.20;;;2.10;;
4821;SDS011;2425;47.794;13.068;2022-10-03T06:51:45;2.60;;;2.50;;
4821;SDS011;2425;47.794;13.068;2022-10-03T06:57:23;2.00;;;2.00;;
4821;SDS011;2425;47.794;13.068;2022-10-03T07:00:13;2.50;;;2.40;;
4821;SDS011;2425;47.794;13.068;2022-10-03T07:02:50;2.67;;;2.57;;
4821;SDS011;2425;47.794;13.068;2022-10-03T07:05:40;2.87;;;2.77;;
4821;SDS011;2425;47.794;13.068;2022-10-03T07:08:35;2.67;;;2.57;;
4821;SDS011;2425;47.794;13.068;2022-10-03T07:11:23;2.87;;;2.77;;
4821;SDS011;2425;47.794;13.068;2022-10-03T07:14:19;2.30;;;2.20;;
4821;SDS011;2425;47.794;13.068;2022-10-03T07:17:32;2.50;;;2.40;;
4821;SDS011;2425;47.794;13.068;2022-10-03T07:26:33;3.30;;;3.10;;
4821;SDS011;2425;47.794;13.068;2022-10-03T07:29:17;2.80;;;2.70;;
4821;SDS011;2425;47.794;13.068;2022-10-03T07:31:58;2.73;;;2.63;;
4821;SDS011;2425;47.794;13.068;2022-10-03T07:35:03;2.60;;;2.50;;
4821;SDS011;2425;47.794;13.068;2022-10-03T07:38:00;2.73;;;2.63;;
4821;SDS011;2425;47.794;13.068;2022-10-03T07:40:58;2.40;;;2.30;;
4821;SDS011;2425;47.794;13.068;2022-10-03T07:43:52;2.00;;;1.90;;
4821;SDS011;2425;47.794;13.068;2022-10-03T07:46:52;2.47;;;2.37;;
4821;SDS011;2425;47.794;13.068;2022-10-03T07:49:49;2.03;;;2.00;;
4821;SDS011;2425;47.794;13.068;2022-10-03T07:52:32;2.13;;;2.03;;
4821;SDS011;2425;47.794;13.068;2022-10-03T07:55:19;2.20;;;2.20;;
4821;SDS011;2425;47.794;13.068;2022-10-03T07:58:18;2.30;;;2.20;;
4821;SDS011;2425;47.794;13.068;2022-10-03T08:01:05;2.03;;;2.03;;
4821;SDS011;2425;47.794;13.068;2022-10-03T08:06:33;2.40;;;2.30;;
4821;SDS011;2425;47.794;13.068;2022-10-03T08:12:23;2.43;;;2.33;;
4821;SDS011;2425;47.794;13.068;2022-10-03T08:15:15;2.60;;;2.50;;
4821;SDS011;2425;47.794;13.068;2022-10-03T08:17:58;2.73;;;2.53;;
4821;SDS011;2425;47.794;13.068;2022-10-03T08:20:46;2.83;;;2.73;;
4821;SDS011;2425;47.794;13.068;2022-10-03T08:26:14;3.97;;;3.67;;
4821;SDS011;2425;47.794;13.068;2022-10-03T08:28:51;3.60;;;3.30;;
4821;SDS011;2425;47.794;13.068;2022-10-03T08:34:41;3.80;;;3.50;;
4821;SDS011;2425;47.794;13.068;2022-10-03T08:37:33;4.33;;;3.80;;
4821;SDS011;2425;47.794;13.068;2022-10-03T08:40:46;3.53;;;3.33;;
4821;SDS011;2425;47.794;13.068;2022-10-03T08:47:04;3.83;;;3.63;;
4821;SDS011;2425;47.794;13.068;2022-10-03T08:50:03;3.87;;;3.57;;
4821;SDS011;2425;47.794;13.068;2022-10-03T08:52:58;3.70;;;3.50;;
4821;SDS011;2425;47.794;13.068;2022-10-03T08:55:40;3.83;;;3.50;;
4821;SDS011;2425;47.794;13.068;2022-10-03T08:58:24;3.60;;;3.40;;
4821;SDS011;2425;47.794;13.068;2022-10-03T09:01:21;6.70;;;2.90;;
4821;SDS011;2425;47.794;13.068;2022-10-03T09:06:59;2.73;;;2.63;;
4821;SDS011;2425;47.794;13.068;2022-10-03T09:12:47;2.47;;;2.37;;
4821;SDS011;2425;47.794;13.068;2022-10-03T09:18:45;2.10;;;2.00;;
4821;SDS011;2425;47.794;13.068;2022-10-03T09:30:39;2.80;;;2.63;;
4821;SDS011;2425;47.794;13.068;2022-10-03T09:42:28;3.67;;;3.37;;
4821;SDS011;2425;47.794;13.068;2022-10-03T09:53:56;3.57;;;2.33;;
4821;SDS011;2425;47.794;13.068;2022-10-03T10:15:02;1.83;;;1.73;;
4821;SDS011;2425;47.794;13.068;2022-10-03T10:18:05;2.07;;;1.97;;
4821;SDS011;2425;47.794;13.068;2022-10-03T10:21:02;2.07;;;1.90;;
4821;SDS011;2425;47.794;13.068;2022-10-03T10:24:03;1.60;;;1.60;;
4821;SDS011;2425;47.794;13.068;2022-10-03T10:26:47;2.10;;;2.00;;
4821;SDS011;2425;47.794;13.068;2022-10-03T10:29:47;1.60;;;1.60;;
4821;SDS011;2425;47.794;13.068;2022-10-03T10:39:26;2.53;;;2.37;;
4821;SDS011;2425;47.794;13.068;2022-10-03T10:42:14;2.47;;;2.37;;
4821;SDS011;2425;47.794;13.068;2022-10-03T10:51:32;2.20;;;2.10;;
4821;SDS011;2425;47.794;13.068;2022-10-03T10:54:43;2.40;;;2.27;;
4821;SDS011;2425;47.794;13.068;2022-10-03T10:57:23;2.33;;;2.23;;
4821;SDS011;2425;47.794;13.068;2022-10-03T11:24:26;1.30;;;1.30;;
4821;SDS011;2425;47.794;13.068;2022-10-03T11:30:40;1.40;;;1.40;;
4821;SDS011;2425;47.794;13.068;2022-10-03T11:39:39;2.03;;;1.60;;
4821;SDS011;2425;47.794;13.068;2022-10-03T11:42:16;1.90;;;1.80;;
4821;SDS011;2425;47.794;13.068;2022-10-03T11:44:48;1.70;;;1.60;;
4821;SDS011;2425;47.794;13.068;2022-10-03T11:47:27;1.43;;;1.43;;
4821;SDS011;2425;47.794;13.068;2022-10-03T11:55:45;1.90;;;1.80;;
4821;SDS011;2425;47.794;13.068;2022-10-03T11:58:23;1.40;;;1.40;;
4821;SDS011;2425;47.794;13.068;2022-10-03T12:00:58;1.60;;;1.60;;
4821;SDS011;2425;47.794;13.068;2022-10-03T12:03:40;1.43;;;1.43;;
4821;SDS011;2425;47.794;13.068;2022-10-03T12:06:14;1.57;;;1.50;;
4821;SDS011;2425;47.794;13.068;2022-10-03T12:09:08;1.30;;;1.30;;
4821;SDS011;2425;47.794;13.068;2022-10-03T12:11:42;1.57;;;1.47;;
4821;SDS011;2425;47.794;13.068;2022-10-03T12:14:18;1.13;;;1.13;;
4821;SDS011;2425;47.794;13.068;2022-10-03T12:17:01;1.43;;;1.43;;
4821;SDS011;2425;47.794;13.068;2022-10-03T12:19:34;1.47;;;1.47;;
4821;SDS011;2425;47.794;13.068;2022-10-03T12:22:09;1.67;;;1.60;;
4821;SDS011;2425;47.794;13.068;2022-10-03T12:24:42;1.00;;;1.00;;
4821;SDS011;2425;47.794;13.068;2022-10-03T12:27:12;1.27;;;1.27;;
4821;SDS011;2425;47.794;13.068;2022-10-03T12:29:46;1.30;;;1.30;;
4821;SDS011;2425;47.794;13.068;2022-10-03T12:32:23;1.03;;;1.03;;
4821;SDS011;2425;47.794;13.068;2022-10-03T12:35:00;1.00;;;1.00;;
4821;SDS011;2425;47.794;13.068;2022-10-03T12:37:35;1.17;;;1.17;;
4821;SDS011;2425;47.794;13.068;2022-10-03T12:40:10;1.30;;;1.30;;
4821;SDS011;2425;47.794;13.068;2022-10-03T12:42:43;2.13;;;1.60;;
4821;SDS011;2425;47.794;13.068;2022-10-03T12:45:17;1.50;;;1.50;;
4821;SDS011;2425;47.794;13.068;2022-10-03T12:47:59;2.53;;;1.43;;
4821;SDS011;2425;47.794;13.068;2022-10-03T12:50:38;2.33;;;2.23;;
4821;SDS011;2425;47.794;13.068;2022-10-03T12:53:23;3.73;;;1.90;;
4821;SDS011;2425;47.794;13.068;2022-10-03T12:58:48;1.80;;;1.80;;
4821;SDS011;2425;47.794;13.068;2022-10-03T13:01:19;1.60;;;1.60;;
4821;SDS011;2425;47.794;13.068;2022-10-03T13:03:51;2.17;;;2.03;;
4821;SDS011;2425;47.794;13.068;2022-10-03T13:06:40;1.40;;;1.40;;
4821;SDS011;2425;47.794;13.068;2022-10-03T13:09:16;1.43;;;1.43;;
4821;SDS011;2425;47.794;13.068;2022-10-03T13:11:51;1.40;;;1.40;;
4821;SDS011;2425;47.794;13.068;2022-10-03T13:14:33;1.27;;;1.27;;
4821;SDS011;2425;47.794;13.068;2022-10-03T13:17:20;1.23;;;1.23;;
4821;SDS011;2425;47.794;13.068;2022-10-03T13:19:53;1.30;;;1.30;;
4821;SDS011;2425;47.794;13.068;2022-10-03T13:22:31;1.17;;;1.17;;
4821;SDS011;2425;47.794;13.068;2022-10-03T13:25:04;1.03;;;1.03;;
4821;SDS011;2425;47.794;13.068;2022-10-03T13:27:40;1.40;;;1.40;;
4821;SDS011;2425;47.794;13.068;2022-10-03T13:30:12;1.13;;;1.13;;
4821;SDS011;2425;47.794;13.068;2022-10-03T13:32:43;1.40;;;1.40;;
4821;SDS011;2425;47.794;13.068;2022-10-03T13:35:18;1.30;;;1.30;;
4821;SDS011;2425;47.794;13.068;2022-10-03T13:38:18;1.07;;;1.07;;
4821;SDS011;2425;47.794;13.068;2022-10-03T13:41:10;1.10;;;1.10;;
4821;SDS011;2425;47.794;13.068;2022-10-03T13:43:43;1.10;;;1.10;;
4821;SDS011;2425;47.794;13.068;2022-10-03T13:46:15;1.40;;;1.40;;
4821;SDS011;2425;47.794;13.068;2022-10-03T13:48:45;1.43;;;1.43;;
4821;SDS011;2425;47.794;13.068;2022-10-03T13:51:18;1.50;;;1.50;;
4821;SDS011;2425;47.794;13.068;2022-10-03T13:53:55;1.57;;;1.57;;
4821;SDS011;2425;47.794;13.068;2022-10-03T13:56:37;2.07;;;1.60;;
4821;SDS011;2425;47.794;13.068;2022-10-03T13:59:10;1.00;;;1.00;;
4821;SDS011;2425;47.794;13.068;2022-10-03T14:01:55;1.40;;;1.40;;
4821;SDS011;2425;47.794;13.068;2022-10-03T14:04:37;1.50;;;1.50;;
4821;SDS011;2425;47.794;13.068;2022-10-03T14:07:22;1.30;;;1.30;;
4821;SDS011;2425;47.794;13.068;2022-10-03T14:10:02;1.10;;;1.10;;
4821;SDS011;2425;47.794;13.068;2022-10-03T14:12:43;1.20;;;1.20;;
4821;SDS011;2425;47.794;13.068;2022-10-03T14:15:20;1.40;;;1.40;;
4821;SDS011;2425;47.794;13.068;2022-10-03T14:17:53;1.40;;;1.40;;
4821;SDS011;2425;47.794;13.068;2022-10-03T14:20:24;1.20;;;1.20;;
4821;SDS011;2425;47.794;13.068;2022-10-03T14:23:06;1.13;;;1.13;;
4821;SDS011;2425;47.794;13.068;2022-10-03T14:25:41;1.50;;;1.50;;
4821;SDS011;2425;47.794;13.068;2022-10-03T14:28:13;1.27;;;1.27;;
4821;SDS011;2425;47.794;13.068;2022-10-03T14:30:45;1.30;;;1.30;;
4821;SDS011;2425;47.794;13.068;2022-10-03T14:33:19;1.03;;;1.03;;
4821;SDS011;2425;47.794;13.068;2022-10-03T14:35:54;1.27;;;1.27;;
4821;SDS011;2425;47.794;13.068;2022-10-03T14:38:37;0.87;;;0.87;;
4821;SDS011;2425;47.794;13.068;2022-10-03T14:41:40;1.37;;;1.37;;
4821;SDS011;2425;47.794;13.068;2022-10-03T14:44:11;1.10;;;1.10;;
4821;SDS011;2425;47.794;13.068;2022-10-03T14:46:41;1.20;;;1.20;;
4821;SDS011;2425;47.794;13.068;2022-10-03T14:49:15;0.90;;;0.90;;
4821;SDS011;2425;47.794;13.068;2022-10-03T14:51:45;1.43;;;1.43;;
4821;SDS011;2425;47.794;13.068;2022-10-03T14:54:16;1.40;;;1.40;;
4821;SDS011;2425;47.794;13.068;2022-10-03T14:56:47;1.33;;;1.33;;
4821;SDS011;2425;47.794;13.068;2022-10-03T14:59:17;1.40;;;1.40;;
4821;SDS011;2425;47.794;13.068;2022-10-03T15:01:48;1.60;;;1.60;;
4821;SDS011;2425;47.794;13.068;2022-10-03T15:04:21;1.40;;;1.40;;
4821;SDS011;2425;47.794;13.068;2022-10-03T15:06:52;1.30;;;1.30;;
4821;SDS011;2425;47.794;13.068;2022-10-03T15:09:21;1.40;;;1.40;;
4821;SDS011;2425;47.794;13.068;2022-10-03T15:11:52;1.40;;;1.40;;
4821;SDS011;2425;47.794;13.068;2022-10-03T15:14:24;1.13;;;1.13;;
4821;SDS011;2425;47.794;13.068;2022-10-03T15:16:52;1.10;;;1.10;;
4821;SDS011;2425;47.794;13.068;2022-10-03T15:19:21;1.30;;;1.30;;
4821;SDS011;2425;47.794;13.068;2022-10-03T15:21:53;1.23;;;1.23;;
4821;SDS011;2425;47.794;13.068;2022-10-03T15:24:21;1.00;;;1.00;;
4821;SDS011;2425;47.794;13.068;2022-10-03T15:26:53;1.10;;;1.10;;
4821;SDS011;2425;47.794;13.068;2022-10-03T15:29:22;1.00;;;1.00;;
4821;SDS011;2425;47.794;13.068;2022-10-03T15:31:50;0.97;;;0.93;;
4821;SDS011;2425;47.794;13.068;2022-10-03T15:34:17;1.00;;;1.00;;
4821;SDS011;2425;47.794;13.068;2022-10-03T15:36:46;1.07;;;1.07;;
4821;SDS011;2425;47.794;13.068;2022-10-03T15:39:18;1.00;;;1.00;;
4821;SDS011;2425;47.794;13.068;2022-10-03T15:41:48;1.13;;;1.13;;
4821;SDS011;2425;47.794;13.068;2022-10-03T15:44:18;1.10;;;1.10;;
4821;SDS011;2425;47.794;13.068;2022-10-03T15:46:49;0.90;;;0.90;;
4821;SDS011;2425;47.794;13.068;2022-10-03T15:49:18;0.90;;;0.90;;
4821;SDS011;2425;47.794;13.068;2022-10-03T15:51:50;1.20;;;1.20;;
4821;SDS011;2425;47.794;13.068;2022-10-03T15:54:20;1.63;;;1.53;;
4821;SDS011;2425;47.794;13.068;2022-10-03T15:56:49;1.00;;;1.00;;
4821;SDS011;2425;47.794;13.068;2022-10-03T15:59:19;1.40;;;1.30;;
4821;SDS011;2425;47.794;13.068;2022-10-03T16:01:48;1.17;;;1.17;;
4821;SDS011;2425;47.794;13.068;2022-10-03T16:04:17;1.77;;;1.50;;
4821;SDS011;2425;47.794;13.068;2022-10-03T16:06:48;1.10;;;1.10;;
4821;SDS011;2425;47.794;13.068;2022-10-03T16:09:16;1.20;;;1.20;;
4821;SDS011;2425;47.794;13.068;2022-10-03T16:11:53;1.10;;;1.10;;
4821;SDS011;2425;47.794;13.068;2022-10-03T16:14:26;1.47;;;1.37;;
4821;SDS011;2425;47.794;13.068;2022-10-03T16:16:56;1.63;;;1.17;;
4821;SDS011;2425;47.794;13.068;2022-10-03T16:19:24;1.40;;;1.30;;
4821;SDS011;2425;47.794;13.068;2022-10-03T16:21:55;1.10;;;1.10;;
4821;SDS011;2425;47.794;13.068;2022-10-03T16:24:33;1.00;;;1.00;;
4821;SDS011;2425;47.794;13.068;2022-10-03T16:27:06;0.80;;;0.80;;
4821;SDS011;2425;47.794;13.068;2022-10-03T16:29:38;0.80;;;0.80;;
4821;SDS011;2425;47.794;13.068;2022-10-03T16:32:14;1.00;;;1.00;;
4821;SDS011;2425;47.794;13.068;2022-10-03T16:34:43;0.90;;;0.90;;
4821;SDS011;2425;47.794;13.068;2022-10-03T16:37:14;0.70;;;0.70;;
4821;SDS011;2425;47.794;13.068;2022-10-03T16:39:43;1.00;;;1.00;;
4821;SDS011;2425;47.794;13.068;2022-10-03T16:42:19;0.80;;;0.80;;
4821;SDS011;2425;47.794;13.068;2022-10-03T16:44:50;0.80;;;0.80;;
4821;SDS011;2425;47.794;13.068;2022-10-03T16:47:25;1.10;;;1.10;;
4821;SDS011;2425;47.794;13.068;2022-10-03T16:49:56;0.77;;;0.77;;
4821;SDS011;2425;47.794;13.068;2022-10-03T16:52:42;0.90;;;0.90;;
4821;SDS011;2425;47.794;13.068;2022-10-03T16:55:13;1.07;;;1.07;;
4821;SDS011;2425;47.794;13.068;2022-10-03T16:57:44;1.00;;;1.00;;
4821;SDS011;2425;47.794;13.068;2022-10-03T17:00:16;1.10;;;1.00;;
4821;SDS011;2425;47.794;13.068;2022-10-03T17:02:46;1.07;;;1.07;;
4821;SDS011;2425;47.794;13.068;2022-10-03T17:05:13;1.20;;;1.20;;
4821;SDS011;2425;47.794;13.068;2022-10-03T17:07:42;1.40;;;1.30;;
4821;SDS011;2425;47.794;13.068;2022-10-03T17:10:27;1.10;;;1.10;;
4821;SDS011;2425;47.794;13.068;2022-10-03T17:13:04;1.10;;;1.10;;
4821;SDS011;2425;47.794;13.068;2022-10-03T17:15:39;1.00;;;1.00;;
4821;SDS011;2425;47.794;13.068;2022-10-03T17:18:14;0.80;;;0.80;;
4821;SDS011;2425;47.794;13.068;2022-10-03T17:20:45;1.10;;;1.10;;
4821;SDS011;2425;47.794;13.068;2022-10-03T17:23:17;1.10;;;1.10;;
4821;SDS011;2425;47.794;13.068;2022-10-03T17:25:54;0.83;;;0.83;;
4821;SDS011;2425;47.794;13.068;2022-10-03T17:28:37;1.10;;;1.10;;
4821;SDS011;2425;47.794;13.068;2022-10-03T17:31:11;1.07;;;1.07;;
4821;SDS011;2425;47.794;13.068;2022-10-03T17:33:47;0.90;;;0.90;;
4821;SDS011;2425;47.794;13.068;2022-10-03T17:39:14;0.87;;;0.87;;
4821;SDS011;2425;47.794;13.068;2022-10-03T17:41:49;0.87;;;0.87;;
4821;SDS011;2425;47.794;13.068;2022-10-03T17:44:22;0.70;;;0.70;;
4821;SDS011;2425;47.794;13.068;2022-10-03T17:46:56;0.90;;;0.90;;
4821;SDS011;2425;47.794;13.068;2022-10-03T17:49:29;0.70;;;0.70;;
4821;SDS011;2425;47.794;13.068;2022-10-03T17:52:10;0.90;;;0.90;;
4821;SDS011;2425;47.794;13.068;2022-10-03T17:54:38;0.80;;;0.80;;
4821;SDS011;2425;47.794;13.068;2022-10-03T17:57:09;1.10;;;1.00;;
4821;SDS011;2425;47.794;13.068;2022-10-03T17:59:43;1.00;;;1.00;;
4821;SDS011;2425;47.794;13.068;2022-10-03T18:02:16;1.00;;;1.00;;
4821;SDS011;2425;47.794;13.068;2022-10-03T18:04:45;1.03;;;1.03;;
4821;SDS011;2425;47.794;13.068;2022-10-03T18:07:15;1.07;;;0.97;;
4821;SDS011;2425;47.794;13.068;2022-10-03T18:09:44;0.90;;;0.90;;
4821;SDS011;2425;47.794;13.068;2022-10-03T18:12:13;0.77;;;0.77;;
4821;SDS011;2425;47.794;13.068;2022-10-03T18:14:53;1.10;;;1.10;;
4821;SDS011;2425;47.794;13.068;2022-10-03T18:17:43;0.80;;;0.80;;
4821;SDS011;2425;47.794;13.068;2022-10-03T18:20:24;1.07;;;1.07;;
4821;SDS011;2425;47.794;13.068;2022-10-03T18:22:58;0.87;;;0.87;;
4821;SDS011;2425;47.794;13.068;2022-10-03T18:25:28;1.00;;;1.00;;
4821;SDS011;2425;47.794;13.068;2022-10-03T18:28:15;0.80;;;0.80;;
4821;SDS011;2425;47.794;13.068;2022-10-03T18:30:48;0.87;;;0.87;;
4821;SDS011;2425;47.794;13.068;2022-10-03T18:33:17;0.60;;;0.60;;
4821;SDS011;2425;47.794;13.068;2022-10-03T18:35:46;0.73;;;0.73;;
4821;SDS011;2425;47.794;13.068;2022-10-03T18:38:16;0.80;;;0.80;;
4821;SDS011;2425;47.794;13.068;2022-10-03T18:40:47;0.60;;;0.60;;
4821;SDS011;2425;47.794;13.068;2022-10-03T18:43:25;0.70;;;0.70;;
4821;SDS011;2425;47.794;13.068;2022-10-03T18:45:58;0.80;;;0.80;;
4821;SDS011;2425;47.794;13.068;2022-10-03T18:48:40;0.83;;;0.83;;
4821;SDS011;2425;47.794;13.068;2022-10-03T18:51:12;0.60;;;0.60;;
4821;SDS011;2425;47.794;13.068;2022-10-03T18:53:43;0.87;;;0.80;;
4821;SDS011;2425;47.794;13.068;2022-10-03T18:56:12;0.80;;;0.80;;
4821;SDS011;2425;47.794;13.068;2022-10-03T18:58:47;0.97;;;0.97;;
4821;SDS011;2425;47.794;13.068;2022-10-03T19:01:26;0.70;;;0.70;;
4821;SDS011;2425;47.794;13.068;2022-10-03T19:03:55;1.00;;;1.00;;
4821;SDS011;2425;47.794;13.068;2022-10-03T19:06:24;1.00;;;1.00;;
4821;SDS011;2425;47.794;13.068;2022-10-03T19:08:53;1.00;;;1.00;;
4821;SDS011;2425;47.794;13.068;2022-10-03T19:11:21;1.00;;;1.00;;
4821;SDS011;2425;47.794;13.068;2022-10-03T19:13:53;0.80;;;0.80;;
4821;SDS011;2425;47.794;13.068;2022-10-03T19:16:28;1.10;;;1.10;;
4821;SDS011;2425;47.794;13.068;2022-10-03T19:19:04;1.07;;;1.07;;
4821;SDS011;2425;47.794;13.068;2022-10-03T19:21:36;0.90;;;0.90;;
4821;SDS011;2425;47.794;13.068;2022-10-03T19:24:04;1.27;;;1.17;;
4821;SDS011;2425;47.794;13.068;2022-10-03T19:26:36;1.10;;;1.10;;
4821;SDS011;2425;47.794;13.068;2022-10-03T19:29:04;1.30;;;1.30;;
4821;SDS011;2425;47.794;13.068;2022-10-03T19:31:36;0.97;;;0.97;;
4821;SDS011;2425;47.794;13.068;2022-10-03T19:34:06;1.13;;;0.90;;
4821;SDS011;2425;47.794;13.068;2022-10-03T19:36:39;1.10;;;1.10;;
4821;SDS011;2425;47.794;13.068;2022-10-03T19:39:09;1.70;;;1.30;;
4821;SDS011;2425;47.794;13.068;2022-10-03T19:41:37;1.60;;;1.50;;
4821;SDS011;2425;47.794;13.068;2022-10-03T19:44:12;1.07;;;1.07;;